createdAt,value
2018-04-10T00:00:36.786Z,15.59
2018-04-10T00:01:37.218Z,15.65
2018-04-10T00:02:37.657Z,15.59
2018-04-10T00:03:38.078Z,15.61
2018-04-10T00:04:38.515Z,15.57
2018-04-10T00:05:38.952Z,15.54
2018-04-10T00:06:39.380Z,15.62
2018-04-10T00:07:39.813Z,15.49
2018-04-10T00:08:40.258Z,15.49
2018-04-10T00:09:40.688Z,15.47
2018-04-10T00:10:41.115Z,15.46
2018-04-10T00:11:41.556Z,15.61
2018-04-10T00:12:41.990Z,15.64
2018-04-10T00:13:42.415Z,15.52
2018-04-10T00:14:42.859Z,15.44
2018-04-10T00:15:43.278Z,15.49
2018-04-10T00:16:43.716Z,15.42
2018-04-10T00:17:44.147Z,15.43
2018-04-10T00:18:44.580Z,15.42
2018-04-10T00:19:45.012Z,15.39
2018-04-10T00:20:45.475Z,15.42
2018-04-10T00:21:45.894Z,15.36
2018-04-10T00:22:46.314Z,15.42
2018-04-10T00:23:46.755Z,15.37
2018-04-10T00:24:47.179Z,15.40
2018-04-10T00:25:47.610Z,15.36
2018-04-10T00:26:48.065Z,15.42
2018-04-10T00:27:48.480Z,15.36
2018-04-10T00:28:48.907Z,15.42
2018-04-10T00:29:49.346Z,15.40
2018-04-10T00:30:49.778Z,15.39
2018-04-10T00:31:50.204Z,15.39
2018-04-10T00:32:50.647Z,15.40
2018-04-10T00:33:51.076Z,15.29
2018-04-10T00:34:51.506Z,15.25
2018-04-10T00:35:51.964Z,15.35
2018-04-10T00:36:52.388Z,15.27
2018-04-10T00:37:52.818Z,15.39
2018-04-10T00:38:53.238Z,15.33
2018-04-10T00:39:53.674Z,15.33
2018-04-10T00:40:54.104Z,15.33
2018-04-10T00:41:54.536Z,15.35
2018-04-10T00:42:54.974Z,15.37
2018-04-10T00:43:55.413Z,15.25
2018-04-10T00:44:55.844Z,15.25
2018-04-10T00:45:56.270Z,15.27
2018-04-10T00:46:56.705Z,15.33
2018-04-10T00:47:57.133Z,15.25
2018-04-10T00:48:57.582Z,15.33
2018-04-10T00:49:58.000Z,15.28
2018-04-10T00:50:58.431Z,15.29
2018-04-10T00:51:58.869Z,15.33
2018-04-10T00:52:59.298Z,15.29
2018-04-10T00:53:59.727Z,15.36
2018-04-10T00:55:00.160Z,15.25
2018-04-10T00:56:00.602Z,15.39
2018-04-10T00:57:07.873Z,15.36
2018-04-10T00:58:01.455Z,15.31
2018-04-10T00:59:01.892Z,15.28
2018-04-10T01:00:02.332Z,15.28
2018-04-10T01:01:02.814Z,15.37
2018-04-10T01:02:03.199Z,15.37
2018-04-10T01:03:03.623Z,15.37
2018-04-10T01:04:04.053Z,15.37
2018-04-10T01:05:04.486Z,15.37
2018-04-10T01:06:04.922Z,15.37
2018-04-10T01:07:05.356Z,15.36
2018-04-10T01:08:05.790Z,15.33
2018-04-10T01:09:06.212Z,15.29
2018-04-10T01:10:06.652Z,15.31
2018-04-10T01:11:07.088Z,15.36
2018-04-10T01:12:07.517Z,15.25
2018-04-10T01:13:07.946Z,15.35
2018-04-10T01:14:08.378Z,15.27
2018-04-10T01:15:08.811Z,15.36
2018-04-10T01:16:09.242Z,15.24
2018-04-10T01:17:09.676Z,15.33
2018-04-10T01:18:10.112Z,15.25
2018-04-10T01:19:10.545Z,15.36
2018-04-10T01:20:10.978Z,15.28
2018-04-10T01:21:11.409Z,15.35
2018-04-10T01:22:11.839Z,15.33
2018-04-10T01:23:12.274Z,15.43
2018-04-10T01:24:12.702Z,15.27
2018-04-10T01:25:13.136Z,15.36
2018-04-10T01:27:47.647Z,15.25
2018-04-10T01:28:48.076Z,15.25
2018-04-10T01:30:42.641Z,15.25
2018-04-10T01:31:43.075Z,15.29
2018-04-10T01:32:43.500Z,15.33
2018-04-10T01:33:43.940Z,15.37
2018-04-10T01:34:44.377Z,15.39
2018-04-10T01:35:47.400Z,15.27
2018-04-10T01:36:45.241Z,15.28
2018-04-10T01:37:45.664Z,15.28
2018-04-10T01:38:46.101Z,15.21
2018-04-10T01:39:46.572Z,15.19
2018-04-10T01:40:46.969Z,15.15
2018-04-10T01:41:47.397Z,15.19
2018-04-10T01:42:47.836Z,15.24
2018-04-10T01:43:48.266Z,15.07
2018-04-10T01:44:48.697Z,15.11
2018-04-10T01:45:49.132Z,15.17
2018-04-10T01:46:49.559Z,15.22
2018-04-10T01:47:49.988Z,15.17
2018-04-10T01:48:50.425Z,15.11
2018-04-10T01:49:50.857Z,15.03
2018-04-10T01:50:51.283Z,15.00
2018-04-10T01:51:51.724Z,15.00
2018-04-10T01:52:52.151Z,14.99
2018-04-10T01:53:52.587Z,15.02
2018-04-10T01:54:53.012Z,15.02
2018-04-10T01:55:53.456Z,15.00
2018-04-10T01:56:53.882Z,14.99
2018-04-10T01:57:54.314Z,15.04
2018-04-10T01:58:54.750Z,14.99
2018-04-10T01:59:55.176Z,14.97
2018-04-10T02:00:55.607Z,14.99
2018-04-10T02:01:56.046Z,14.97
2018-04-10T02:02:56.478Z,15.03
2018-04-10T02:03:56.912Z,14.99
2018-04-10T02:04:57.347Z,15.02
2018-04-10T02:05:57.800Z,14.89
2018-04-10T02:06:58.206Z,14.96
2018-04-10T02:07:58.632Z,14.99
2018-04-10T02:08:59.077Z,14.96
2018-04-10T02:09:59.499Z,14.94
2018-04-10T02:10:59.932Z,14.99
2018-04-10T02:12:00.380Z,14.89
2018-04-10T02:13:00.796Z,14.91
2018-04-10T02:14:01.227Z,14.91
2018-04-10T02:15:01.656Z,14.86
2018-04-10T02:16:02.095Z,14.84
2018-04-10T02:17:02.528Z,14.81
2018-04-10T02:18:02.968Z,14.73
2018-04-10T02:19:03.393Z,14.73
2018-04-10T02:20:03.822Z,14.84
2018-04-10T02:21:04.256Z,14.73
2018-04-10T02:22:04.682Z,14.70
2018-04-10T02:23:05.116Z,14.69
2018-04-10T02:24:05.551Z,14.70
2018-04-10T02:25:06.010Z,14.66
2018-04-10T02:26:06.418Z,14.73
2018-04-10T02:27:06.848Z,14.73
2018-04-10T02:28:07.271Z,14.77
2018-04-10T02:29:07.716Z,14.59
2018-04-10T02:30:08.145Z,14.62
2018-04-10T02:31:08.567Z,14.70
2018-04-10T02:32:09.005Z,14.68
2018-04-10T02:33:09.440Z,14.63
2018-04-10T02:34:09.870Z,14.68
2018-04-10T02:35:10.298Z,14.55
2018-04-10T02:36:10.732Z,14.54
2018-04-10T02:37:11.160Z,14.58
2018-04-10T02:38:11.595Z,14.54
2018-04-10T02:39:12.028Z,14.58
2018-04-10T02:40:12.457Z,14.58
2018-04-10T02:41:12.887Z,14.55
2018-04-10T02:42:13.322Z,14.55
2018-04-10T02:43:13.756Z,14.51
2018-04-10T02:44:14.190Z,14.55
2018-04-10T02:45:14.636Z,14.48
2018-04-10T02:46:15.046Z,14.53
2018-04-10T02:47:15.481Z,14.50
2018-04-10T02:48:15.919Z,14.44
2018-04-10T02:49:16.371Z,14.48
2018-04-10T02:50:16.778Z,14.50
2018-04-10T02:51:17.217Z,14.50
2018-04-10T02:52:17.641Z,14.48
2018-04-10T02:53:18.073Z,14.43
2018-04-10T02:54:18.501Z,14.45
2018-04-10T02:55:18.928Z,14.51
2018-04-10T02:56:19.364Z,14.48
2018-04-10T02:57:19.797Z,14.53
2018-04-10T02:58:20.230Z,14.37
2018-04-10T02:59:20.660Z,14.37
2018-04-10T03:00:21.093Z,14.40
2018-04-10T03:01:21.519Z,14.35
2018-04-10T03:02:21.949Z,14.35
2018-04-10T03:03:22.442Z,14.40
2018-04-10T03:04:22.817Z,14.40
2018-04-10T03:05:23.247Z,14.33
2018-04-10T03:06:23.676Z,14.35
2018-04-10T03:07:24.106Z,14.36
2018-04-10T03:08:24.539Z,14.35
2018-04-10T03:09:24.976Z,14.37
2018-04-10T03:10:25.398Z,14.40
2018-04-10T03:11:25.840Z,14.32
2018-04-10T03:12:26.265Z,14.35
2018-04-10T03:13:26.697Z,14.43
2018-04-10T03:14:27.127Z,14.25
2018-04-10T03:15:27.557Z,14.29
2018-04-10T03:16:27.989Z,14.30
2018-04-10T03:17:28.438Z,14.32
2018-04-10T03:18:28.858Z,14.32
2018-04-10T03:19:29.286Z,14.35
2018-04-10T03:20:29.719Z,14.30
2018-04-10T03:21:30.145Z,14.29
2018-04-10T03:22:30.576Z,14.32
2018-04-10T03:23:31.032Z,14.36
2018-04-10T03:24:31.438Z,14.26
2018-04-10T03:25:31.875Z,14.25
2018-04-10T03:26:32.301Z,14.30
2018-04-10T03:27:32.736Z,14.26
2018-04-10T03:28:33.163Z,14.23
2018-04-10T03:29:33.595Z,14.23
2018-04-10T03:30:34.024Z,14.23
2018-04-10T03:31:34.454Z,14.23
2018-04-10T03:32:34.889Z,14.22
2018-04-10T03:33:35.322Z,14.18
2018-04-10T03:34:35.782Z,14.17
2018-04-10T03:35:36.182Z,14.23
2018-04-10T03:36:36.616Z,14.18
2018-04-10T03:37:37.042Z,14.15
2018-04-10T03:38:37.477Z,14.15
2018-04-10T03:39:37.909Z,14.11
2018-04-10T03:40:38.347Z,14.25
2018-04-10T03:41:38.779Z,14.18
2018-04-10T03:42:39.219Z,14.18
2018-04-10T03:43:39.632Z,14.22
2018-04-10T03:44:40.061Z,14.12
2018-04-10T03:45:40.491Z,14.08
2018-04-10T03:46:40.928Z,14.15
2018-04-10T03:47:41.354Z,14.11
2018-04-10T03:48:41.782Z,14.12
2018-04-10T03:49:42.227Z,14.11
2018-04-10T03:50:42.649Z,14.11
2018-04-10T03:51:43.075Z,14.12
2018-04-10T03:52:43.510Z,14.12
2018-04-10T03:53:43.944Z,14.10
2018-04-10T03:54:44.374Z,13.97
2018-04-10T03:55:44.838Z,14.04
2018-04-10T03:56:45.236Z,14.03
2018-04-10T03:57:45.670Z,14.03
2018-04-10T03:58:46.094Z,14.03
2018-04-10T03:59:46.531Z,14.05
2018-04-10T04:00:46.960Z,14.05
2018-04-10T04:01:47.393Z,13.99
2018-04-10T04:02:47.821Z,13.96
2018-04-10T04:03:48.271Z,14.00
2018-04-10T04:04:48.701Z,13.87
2018-04-10T04:05:49.125Z,13.95
2018-04-10T04:06:49.544Z,13.96
2018-04-10T04:07:49.981Z,13.95
2018-04-10T04:08:50.411Z,14.00
2018-04-10T04:09:50.835Z,13.96
2018-04-10T04:10:51.271Z,13.95
2018-04-10T04:11:51.704Z,13.97
2018-04-10T04:12:52.202Z,14.04
2018-04-10T04:13:52.562Z,13.99
2018-04-10T04:14:52.993Z,14.03
2018-04-10T04:15:53.428Z,14.03
2018-04-10T04:16:53.852Z,14.00
2018-04-10T04:17:54.277Z,13.92
2018-04-10T04:18:54.713Z,13.97
2018-04-10T04:19:55.137Z,13.92
2018-04-10T04:20:55.605Z,13.95
2018-04-10T04:21:56.007Z,14.00
2018-04-10T04:22:56.441Z,13.93
2018-04-10T04:23:56.870Z,14.00
2018-04-10T04:24:57.296Z,13.93
2018-04-10T04:25:57.748Z,13.96
2018-04-10T04:26:58.156Z,13.92
2018-04-10T04:27:58.594Z,13.90
2018-04-10T04:28:59.025Z,14.05
2018-04-10T04:29:59.459Z,14.03
2018-04-10T04:30:59.885Z,14.08
2018-04-10T04:32:00.310Z,13.97
2018-04-10T04:33:00.744Z,14.03
2018-04-10T04:34:01.171Z,14.05
2018-04-10T04:35:01.598Z,14.00
2018-04-10T04:36:02.034Z,14.07
2018-04-10T04:37:02.468Z,14.05
2018-04-10T04:38:02.897Z,14.05
2018-04-10T04:39:03.328Z,14.07
2018-04-10T04:40:03.762Z,14.14
2018-04-10T04:41:04.194Z,14.10
2018-04-10T04:42:04.615Z,14.10
2018-04-10T04:43:05.055Z,14.10
2018-04-10T04:44:05.475Z,14.07
2018-04-10T04:45:05.916Z,14.14
2018-04-10T04:46:06.335Z,14.17
2018-04-10T04:47:06.790Z,14.18
2018-04-10T04:48:07.204Z,14.10
2018-04-10T04:49:07.636Z,14.05
2018-04-10T04:50:08.064Z,14.18
2018-04-10T04:51:08.499Z,14.17
2018-04-10T04:52:08.939Z,14.11
2018-04-10T04:53:09.358Z,14.20
2018-04-10T04:54:09.796Z,14.18
2018-04-10T04:55:10.233Z,14.22
2018-04-10T04:56:10.648Z,14.22
2018-04-10T04:57:11.084Z,14.20
2018-04-10T04:58:11.513Z,14.29
2018-04-10T04:59:11.943Z,14.26
2018-04-10T05:00:12.377Z,14.26
2018-04-10T05:01:12.810Z,14.17
2018-04-10T05:02:13.233Z,14.08
2018-04-10T05:03:13.667Z,14.22
2018-04-10T05:04:14.100Z,14.20
2018-04-10T05:05:14.533Z,14.29
2018-04-10T05:06:14.967Z,14.23
2018-04-10T05:07:15.391Z,14.22
2018-04-10T05:08:15.818Z,14.26
2018-04-10T05:09:16.264Z,14.26
2018-04-10T05:10:16.683Z,14.28
2018-04-10T05:11:17.119Z,14.28
2018-04-10T05:12:17.551Z,14.17
2018-04-10T05:13:17.985Z,14.29
2018-04-10T05:14:18.409Z,14.32
2018-04-10T05:15:18.845Z,14.35
2018-04-10T05:16:19.268Z,14.30
2018-04-10T05:17:19.704Z,14.22
2018-04-10T05:18:20.141Z,14.29
2018-04-10T05:19:20.571Z,14.30
2018-04-10T05:20:20.995Z,14.30
2018-04-10T05:21:21.426Z,14.35
2018-04-10T05:22:21.859Z,14.28
2018-04-10T05:23:22.312Z,14.36
2018-04-10T05:24:22.720Z,14.44
2018-04-10T05:25:23.153Z,14.41
2018-04-10T05:26:23.589Z,14.41
2018-04-10T05:27:24.034Z,14.37
2018-04-10T05:28:24.446Z,14.30
2018-04-10T05:29:24.903Z,14.41
2018-04-10T05:30:25.316Z,14.30
2018-04-10T05:31:25.736Z,14.41
2018-04-10T05:32:26.185Z,14.45
2018-04-10T05:33:26.629Z,14.48
2018-04-10T05:34:27.055Z,14.51
2018-04-10T05:35:27.473Z,14.53
2018-04-10T05:36:27.899Z,14.54
2018-04-10T05:37:28.334Z,14.55
2018-04-10T05:38:28.764Z,14.66
2018-04-10T05:39:29.196Z,14.54
2018-04-10T05:40:29.627Z,14.63
2018-04-10T05:41:30.066Z,14.58
2018-04-10T05:45:36.667Z,14.66
2018-04-10T05:46:37.102Z,14.69
2018-04-10T05:48:31.699Z,14.69
2018-04-10T05:49:32.106Z,14.77
2018-04-10T05:51:26.665Z,14.81
2018-04-10T05:52:30.864Z,14.88
2018-04-10T05:54:22.744Z,14.82
2018-04-10T05:55:23.059Z,14.88
2018-04-10T05:57:17.649Z,14.89
2018-04-10T05:58:18.073Z,15.04
2018-04-10T06:00:12.662Z,14.82
2018-04-10T06:01:13.074Z,14.84
2018-04-10T06:03:09.619Z,14.96
2018-04-10T06:04:10.070Z,15.04
2018-04-10T06:05:10.488Z,14.85
2018-04-10T06:06:10.916Z,15.00
2018-04-10T06:07:11.351Z,14.99
2018-04-10T06:08:11.776Z,15.07
2018-04-10T06:09:12.214Z,14.86
2018-04-10T06:10:12.641Z,15.07
2018-04-10T06:11:13.130Z,15.04
2018-04-10T06:12:13.519Z,15.07
2018-04-10T06:13:13.963Z,15.06
2018-04-10T06:14:14.374Z,15.19
2018-04-10T06:15:14.808Z,15.22
2018-04-10T06:16:15.253Z,15.19
2018-04-10T06:17:15.668Z,15.10
2018-04-10T06:18:16.102Z,15.21
2018-04-10T06:19:16.538Z,15.22
2018-04-10T06:20:16.968Z,15.36
2018-04-10T06:21:17.405Z,15.17
2018-04-10T06:22:17.834Z,15.07
2018-04-10T06:23:18.273Z,15.29
2018-04-10T06:24:18.697Z,15.29
2018-04-10T06:25:19.136Z,15.37
2018-04-10T06:26:19.566Z,15.46
2018-04-10T06:27:19.996Z,15.61
2018-04-10T06:28:20.435Z,15.51
2018-04-10T06:29:20.867Z,15.65
2018-04-10T06:30:21.294Z,15.68
2018-04-10T06:31:21.727Z,15.77
2018-04-10T06:32:22.164Z,15.79
2018-04-10T06:33:23.596Z,15.55
2018-04-10T06:34:23.033Z,15.70
2018-04-10T06:35:23.469Z,15.76
2018-04-10T06:36:23.894Z,15.82
2018-04-10T06:37:24.365Z,15.94
2018-04-10T06:38:24.767Z,15.92
2018-04-10T06:39:25.198Z,15.94
2018-04-10T06:40:27.401Z,15.97
2018-04-10T06:41:26.075Z,16.08
2018-04-10T06:42:26.604Z,16.02
2018-04-10T06:43:26.927Z,16.12
2018-04-10T06:44:27.368Z,16.16
2018-04-10T06:45:27.801Z,16.02
2018-04-10T06:46:29.946Z,16.15
2018-04-10T06:47:28.677Z,16.26
2018-04-10T06:48:30.912Z,16.15
2018-04-10T06:49:29.531Z,16.21
2018-04-10T06:50:31.899Z,16.32
2018-04-10T06:51:30.405Z,16.28
2018-04-10T06:52:32.400Z,16.35
2018-04-10T06:53:31.277Z,16.36
2018-04-10T06:54:31.712Z,16.42
2018-04-10T06:55:33.903Z,16.35
2018-04-10T06:56:32.581Z,16.32
2018-04-10T06:57:33.030Z,16.53
2018-04-10T06:58:33.444Z,16.58
2018-04-10T06:59:33.888Z,16.68
2018-04-10T07:00:34.315Z,16.64
2018-04-10T07:01:34.762Z,16.51
2018-04-10T07:02:35.183Z,16.74
2018-04-10T07:03:35.621Z,16.75
2018-04-10T07:04:36.059Z,16.81
2018-04-10T07:05:36.495Z,16.89
2018-04-10T07:06:36.923Z,16.97
2018-04-10T07:07:37.353Z,16.90
2018-04-10T07:08:37.788Z,17.01
2018-04-10T07:09:38.238Z,16.87
2018-04-10T07:10:38.716Z,16.96
2018-04-10T07:11:39.098Z,17.14
2018-04-10T07:12:39.541Z,17.26
2018-04-10T07:13:39.972Z,17.31
2018-04-10T07:14:40.417Z,17.33
2018-04-10T07:15:40.943Z,17.22
2018-04-10T07:16:41.280Z,17.36
2018-04-10T07:17:41.719Z,17.45
2018-04-10T07:18:42.147Z,17.59
2018-04-10T07:19:42.583Z,17.64
2018-04-10T07:20:43.018Z,17.65
2018-04-10T07:21:43.455Z,17.51
2018-04-10T07:22:43.902Z,17.56
2018-04-10T07:23:44.342Z,17.67
2018-04-10T07:24:44.772Z,17.74
2018-04-10T07:25:45.199Z,17.82
2018-04-10T07:26:45.633Z,17.68
2018-04-10T07:27:46.090Z,17.64
2018-04-10T07:28:46.507Z,17.74
2018-04-10T07:29:46.943Z,17.92
2018-04-10T07:30:47.385Z,17.85
2018-04-10T07:31:47.818Z,18.01
2018-04-10T07:32:48.260Z,18.11
2018-04-10T07:33:48.693Z,18.25
2018-04-10T07:34:49.128Z,18.44
2018-04-10T07:35:49.589Z,18.41
2018-04-10T07:36:50.005Z,18.55
2018-04-10T07:37:50.443Z,18.58
2018-04-10T07:38:50.877Z,18.71
2018-04-10T07:39:51.357Z,18.50
2018-04-10T07:40:51.794Z,18.59
2018-04-10T07:41:52.196Z,18.86
2018-04-10T07:42:52.634Z,18.95
2018-04-10T07:43:53.066Z,19.11
2018-04-10T07:44:53.511Z,19.33
2018-04-10T07:45:53.954Z,19.37
2018-04-10T07:46:54.389Z,19.67
2018-04-10T07:47:54.831Z,19.92
2018-04-10T07:48:55.265Z,20.04
2018-04-10T07:49:55.715Z,20.36
2018-04-10T07:50:56.146Z,20.56
2018-04-10T07:51:56.595Z,20.69
2018-04-10T07:52:57.029Z,21.15
2018-04-10T07:53:57.527Z,21.39
2018-04-10T07:54:57.922Z,21.70
2018-04-10T07:55:58.367Z,21.72
2018-04-10T07:56:58.843Z,22.17
2018-04-10T07:57:59.265Z,22.30
2018-04-10T07:58:59.686Z,22.36
2018-04-10T08:00:00.136Z,22.53
2018-04-10T08:01:00.599Z,22.57
2018-04-10T08:02:01.039Z,22.73
2018-04-10T08:03:01.487Z,22.69
2018-04-10T08:04:01.946Z,22.54
2018-04-10T08:05:02.378Z,22.54
2018-04-10T08:06:02.842Z,22.91
2018-04-10T08:07:03.272Z,23.12
2018-04-10T08:08:03.723Z,23.13
2018-04-10T08:09:04.170Z,23.03
2018-04-10T08:10:04.613Z,23.48
2018-04-10T08:11:05.078Z,23.96
2018-04-10T08:12:05.531Z,24.47
2018-04-10T08:13:05.979Z,24.11
2018-04-10T08:14:06.425Z,24.45
2018-04-10T08:15:06.870Z,24.77
2018-04-10T08:16:07.322Z,25.21
2018-04-10T08:17:07.782Z,24.98
2018-04-10T08:18:08.256Z,24.24
2018-04-10T08:19:08.675Z,25.38
2018-04-10T08:20:09.136Z,25.60
2018-04-10T08:21:09.595Z,25.93
2018-04-10T08:22:10.045Z,25.11
2018-04-10T08:23:10.499Z,25.08
2018-04-10T08:24:10.948Z,24.68
2018-04-10T08:25:11.426Z,25.14
2018-04-10T08:26:11.859Z,24.96
2018-04-10T08:27:12.313Z,25.18
2018-04-10T08:28:12.783Z,25.28
2018-04-10T08:29:13.238Z,25.75
2018-04-10T08:30:13.671Z,26.52
2018-04-10T08:31:14.143Z,26.92
2018-04-10T08:32:14.597Z,26.95
2018-04-10T08:33:15.046Z,26.93
2018-04-10T08:34:15.508Z,26.36
2018-04-10T08:35:15.956Z,25.51
2018-04-10T08:36:16.422Z,25.87
2018-04-10T08:37:16.880Z,27.11
2018-04-10T08:38:17.333Z,27.89
2018-04-10T08:39:17.783Z,28.70
2018-04-10T08:40:18.239Z,28.25
2018-04-10T08:41:18.706Z,28.47
2018-04-10T08:42:19.160Z,28.72
2018-04-10T08:43:19.618Z,27.90
2018-04-10T08:44:20.077Z,28.15
2018-04-10T08:45:20.525Z,27.20
2018-04-10T08:46:20.987Z,27.63
2018-04-10T08:47:21.449Z,27.59
2018-04-10T08:48:21.907Z,27.68
2018-04-10T08:49:22.370Z,28.02
2018-04-10T08:50:22.816Z,28.22
2018-04-10T08:51:23.292Z,26.83
2018-04-10T08:52:23.772Z,27.45
2018-04-10T08:53:24.201Z,28.57
2018-04-10T08:54:24.674Z,29.36
2018-04-10T08:55:25.113Z,29.76
2018-04-10T08:56:25.576Z,29.98
2018-04-10T08:57:26.036Z,30.35
2018-04-10T08:58:26.499Z,28.82
2018-04-10T08:59:26.966Z,28.79
2018-04-10T09:00:27.415Z,28.79
2018-04-10T09:01:27.880Z,28.42
2018-04-10T09:02:28.335Z,29.72
2018-04-10T09:03:28.798Z,29.41
2018-04-10T09:04:29.253Z,30.65
2018-04-10T09:05:29.737Z,30.23
2018-04-10T09:06:30.190Z,28.14
2018-04-10T09:07:30.639Z,29.68
2018-04-10T09:08:31.101Z,28.56
2018-04-10T09:09:31.559Z,30.16
2018-04-10T09:10:32.032Z,30.30
2018-04-10T09:11:32.478Z,29.20
2018-04-10T09:12:32.950Z,30.02
2018-04-10T09:13:33.412Z,29.54
2018-04-10T09:14:33.872Z,29.76
2018-04-10T09:15:34.338Z,29.68
2018-04-10T09:16:34.797Z,28.07
2018-04-10T09:17:35.266Z,29.07
2018-04-10T09:18:35.718Z,29.10
2018-04-10T09:19:36.188Z,29.35
2018-04-10T09:20:36.660Z,30.06
2018-04-10T09:21:37.122Z,30.39
2018-04-10T09:22:37.565Z,30.83
2018-04-10T09:23:38.039Z,29.53
2018-04-10T09:24:38.500Z,30.06
2018-04-10T09:25:38.960Z,31.18
2018-04-10T09:26:39.423Z,31.39
2018-04-10T09:27:39.893Z,30.70
2018-04-10T09:28:40.352Z,30.53
2018-04-10T09:29:40.835Z,31.70
2018-04-10T09:30:41.283Z,31.97
2018-04-10T09:31:41.738Z,32.07
2018-04-10T09:32:42.212Z,31.58
2018-04-10T09:33:42.668Z,31.25
2018-04-10T09:34:43.143Z,31.46
2018-04-10T09:35:43.594Z,32.04
2018-04-10T09:36:44.069Z,32.48
2018-04-10T09:37:44.531Z,31.92
2018-04-10T09:38:44.999Z,31.40
2018-04-10T09:39:45.463Z,31.18
2018-04-10T09:40:45.925Z,30.94
2018-04-10T09:41:46.395Z,32.18
2018-04-10T09:42:46.850Z,32.60
2018-04-10T09:43:47.338Z,31.59
2018-04-10T09:44:47.779Z,30.77
2018-04-10T09:45:48.252Z,31.17
2018-04-10T09:46:48.716Z,30.44
2018-04-10T09:47:49.181Z,31.29
2018-04-10T09:48:49.639Z,31.47
2018-04-10T09:49:50.112Z,31.49
2018-04-10T09:50:50.582Z,31.05
2018-04-10T09:51:51.127Z,30.87
2018-04-10T09:52:51.517Z,31.69
2018-04-10T09:53:51.981Z,32.03
2018-04-10T09:54:52.468Z,31.39
2018-04-10T09:55:52.918Z,31.40
2018-04-10T09:56:53.375Z,30.81
2018-04-10T09:57:53.841Z,30.28
2018-04-10T09:58:54.308Z,30.73
2018-04-10T09:59:54.802Z,31.46
2018-04-10T10:00:55.242Z,31.28
2018-04-10T10:01:55.701Z,30.69
2018-04-10T10:02:56.175Z,28.94
2018-04-10T10:03:56.636Z,29.36
2018-04-10T10:04:57.114Z,29.42
2018-04-10T10:05:57.572Z,29.50
2018-04-10T10:06:58.049Z,28.91
2018-04-10T10:07:58.507Z,30.23
2018-04-10T10:08:58.984Z,30.34
2018-04-10T10:09:59.441Z,31.28
2018-04-10T10:10:59.900Z,31.69
2018-04-10T10:12:00.376Z,31.81
2018-04-10T10:13:00.840Z,31.40
2018-04-10T10:14:01.303Z,31.36
2018-04-10T10:15:01.792Z,31.44
2018-04-10T10:16:02.247Z,30.39
2018-04-10T10:17:02.704Z,30.34
2018-04-10T10:18:03.168Z,29.47
2018-04-10T10:19:03.663Z,29.47
2018-04-10T10:20:04.103Z,30.77
2018-04-10T10:21:04.576Z,31.28
2018-04-10T10:22:05.032Z,31.85
2018-04-10T10:23:05.508Z,32.08
2018-04-10T10:24:05.967Z,31.24
2018-04-10T10:25:06.440Z,29.98
2018-04-10T10:26:06.911Z,29.41
2018-04-10T10:27:07.376Z,28.25
2018-04-10T10:28:07.860Z,28.04
2018-04-10T10:29:08.304Z,27.90
2018-04-10T10:30:08.769Z,28.39
2018-04-10T10:31:09.243Z,28.82
2018-04-10T10:32:09.700Z,28.91
2018-04-10T10:33:10.176Z,28.86
2018-04-10T10:34:10.634Z,28.78
2018-04-10T10:35:13.064Z,29.07
2018-04-10T10:36:11.567Z,29.05
2018-04-10T10:37:12.032Z,29.36
2018-04-10T10:38:12.492Z,30.68
2018-04-10T10:39:12.967Z,31.36
2018-04-10T10:40:13.429Z,31.37
2018-04-10T10:41:13.898Z,30.94
2018-04-10T10:42:14.361Z,30.34
2018-04-10T10:43:14.821Z,30.77
2018-04-10T10:44:15.301Z,31.29
2018-04-10T10:45:15.751Z,31.43
2018-04-10T10:46:16.235Z,29.79
2018-04-10T10:47:16.686Z,30.25
2018-04-10T10:48:17.167Z,31.71
2018-04-10T10:49:17.620Z,32.40
2018-04-10T10:50:18.085Z,32.18
2018-04-10T10:51:18.560Z,31.58
2018-04-10T10:52:19.016Z,31.28
2018-04-10T10:53:19.556Z,30.66
2018-04-10T10:54:19.953Z,30.55
2018-04-10T10:55:20.414Z,29.88
2018-04-10T10:56:20.898Z,31.28
2018-04-10T10:57:21.363Z,31.40
2018-04-10T10:58:21.827Z,30.32
2018-04-10T10:59:22.295Z,30.53
2018-04-10T11:00:22.761Z,29.90
2018-04-10T11:01:23.230Z,31.02
2018-04-10T11:02:23.702Z,31.61
2018-04-10T11:03:24.176Z,32.08
2018-04-10T11:04:24.642Z,32.16
2018-04-10T11:05:25.110Z,31.76
2018-04-10T11:06:25.581Z,32.00
2018-04-10T11:07:26.047Z,31.42
2018-04-10T11:08:26.511Z,30.13
2018-04-10T11:09:26.981Z,30.40
2018-04-10T11:10:27.444Z,29.71
2018-04-10T11:11:27.921Z,30.61
2018-04-10T11:12:28.381Z,31.05
2018-04-10T11:13:28.853Z,31.22
2018-04-10T11:14:29.331Z,30.99
2018-04-10T11:15:29.795Z,30.91
2018-04-10T11:16:30.260Z,31.47
2018-04-10T11:17:30.727Z,31.70
2018-04-10T11:18:31.202Z,31.76
2018-04-10T11:19:31.672Z,32.00
2018-04-10T11:20:32.135Z,30.70
2018-04-10T11:21:32.612Z,30.51
2018-04-10T11:22:33.067Z,30.57
2018-04-10T11:23:33.547Z,30.70
2018-04-10T11:24:34.006Z,30.80
2018-04-10T11:25:34.481Z,30.80
2018-04-10T11:26:34.943Z,30.21
2018-04-10T11:27:35.419Z,29.73
2018-04-10T11:28:35.880Z,30.02
2018-04-10T11:29:36.353Z,29.72
2018-04-10T11:30:36.818Z,29.93
2018-04-10T11:31:37.286Z,30.03
2018-04-10T11:32:37.749Z,31.02
2018-04-10T11:33:38.220Z,30.30
2018-04-10T11:34:38.682Z,31.70
2018-04-10T11:35:39.154Z,31.07
2018-04-10T11:36:39.619Z,31.29
2018-04-10T11:37:54.648Z,31.17
2018-04-10T11:40:16.463Z,31.07
2018-04-10T11:41:15.166Z,30.16
2018-04-10T11:43:09.817Z,29.27
2018-04-10T11:44:10.267Z,29.04
2018-04-10T11:46:04.898Z,28.41
2018-04-10T11:47:05.358Z,27.86
2018-04-10T11:49:00.994Z,28.00
2018-04-10T11:50:01.415Z,27.37
2018-04-10T11:51:56.055Z,26.85
2018-04-10T11:52:56.497Z,26.41
2018-04-10T11:53:56.956Z,26.19
2018-04-10T11:54:57.409Z,25.91
2018-04-10T11:55:57.864Z,25.98
2018-04-10T11:56:58.328Z,25.99
2018-04-10T11:57:58.775Z,25.70
2018-04-10T11:58:59.232Z,25.87
2018-04-10T11:59:59.687Z,25.59
2018-04-10T12:01:00.133Z,25.85
2018-04-10T12:02:00.638Z,25.47
2018-04-10T12:03:01.040Z,25.29
2018-04-10T12:04:01.498Z,25.23
2018-04-10T12:05:01.945Z,25.13
2018-04-10T12:06:02.397Z,24.98
2018-04-10T12:07:02.850Z,24.98
2018-04-10T12:08:03.304Z,25.11
2018-04-10T12:09:03.775Z,25.25
2018-04-10T12:10:04.203Z,25.22
2018-04-10T12:11:04.649Z,25.25
2018-04-10T12:12:05.098Z,25.26
2018-04-10T12:13:05.549Z,25.13
2018-04-10T12:14:06.002Z,25.08
2018-04-10T12:15:06.450Z,25.06
2018-04-10T12:16:06.934Z,25.08
2018-04-10T12:17:07.351Z,25.08
2018-04-10T12:18:07.797Z,24.98
2018-04-10T12:19:08.243Z,25.06
2018-04-10T12:20:08.736Z,25.14
2018-04-10T12:21:09.141Z,25.23
2018-04-10T12:22:09.583Z,25.22
2018-04-10T12:23:10.028Z,25.10
2018-04-10T12:24:10.484Z,24.98
2018-04-10T12:25:10.951Z,25.04
2018-04-10T12:26:11.378Z,24.86
2018-04-10T12:27:11.822Z,25.11
2018-04-10T12:28:12.270Z,25.13
2018-04-10T12:29:12.715Z,25.26
2018-04-10T12:30:13.175Z,25.14
2018-04-10T12:31:13.619Z,25.23
2018-04-10T12:32:14.064Z,25.35
2018-04-10T12:33:14.503Z,25.40
2018-04-10T12:34:14.959Z,25.40
2018-04-10T12:35:15.402Z,25.11
2018-04-10T12:36:15.849Z,25.10
2018-04-10T12:37:16.308Z,25.16
2018-04-10T12:38:16.746Z,24.95
2018-04-10T12:39:17.184Z,25.07
2018-04-10T12:40:17.641Z,24.98
2018-04-10T12:41:18.093Z,25.08
2018-04-10T12:42:18.536Z,25.13
2018-04-10T12:43:18.984Z,25.07
2018-04-10T12:44:19.442Z,25.17
2018-04-10T12:45:19.905Z,25.23
2018-04-10T12:46:20.336Z,25.21
2018-04-10T12:47:20.773Z,25.18
2018-04-10T12:48:21.220Z,25.26
2018-04-10T12:49:21.666Z,25.28
2018-04-10T12:50:22.112Z,25.16
2018-04-10T12:51:22.564Z,25.26
2018-04-10T12:52:23.010Z,24.96
2018-04-10T12:53:23.472Z,25.18
2018-04-10T12:54:23.918Z,25.26
2018-04-10T12:55:24.360Z,25.29
2018-04-10T12:56:24.799Z,25.31
2018-04-10T12:57:25.244Z,25.13
2018-04-10T12:58:25.693Z,24.98
2018-04-10T12:59:26.136Z,25.13
2018-04-10T13:00:26.586Z,24.99
2018-04-10T13:01:27.036Z,25.03
2018-04-10T13:02:27.477Z,25.08
2018-04-10T13:03:27.939Z,25.25
2018-04-10T13:04:28.381Z,25.28
2018-04-10T13:05:28.820Z,25.41
2018-04-10T13:06:29.279Z,25.40
2018-04-10T13:07:29.716Z,25.35
2018-04-10T13:08:30.170Z,25.35
2018-04-10T13:09:30.618Z,25.25
2018-04-10T13:10:31.066Z,25.25
2018-04-10T13:11:31.506Z,25.28
2018-04-10T13:12:31.953Z,25.43
2018-04-10T13:13:32.447Z,25.44
2018-04-10T13:14:32.845Z,25.48